Time;durP1;ratioP1;P1;durP2;ratioP2;P2;SDS_P1;SDS_P2;PMS_P1;PMS_P2;Temp;Humidity;BMP_temperature;BMP_pressure;BME280_temperature;BME280_humidity;BME280_pressure;Samples;Min_cycle;Max_cycle;Signal;HPM_P1;HPM_P2
2023/07/22 00:02:20;;;;;;;;;;;21.10;67.20;;;;;;4108465;28;19937;-47
2023/07/22 00:05:02;;;;;;;;;;;21.10;67.30;;;;;;4133537;28;19933;-48
2023/07/22 00:07:47;;;;;;;;;;;21.10;67.30;;;;;;4141979;28;20387;-48
2023/07/22 00:10:29;;;;;;;;;;;21.10;67.40;;;;;;4150891;28;20003;-47
2023/07/22 00:13:17;;;;;;;;;;;21.10;67.30;;;;;;4157628;28;19932;-50
2023/07/22 00:16:01;;;;;;;;;;;21.10;67.40;;;;;;4150667;28;20035;-49
2023/07/22 00:18:42;;;;;;;;;;;21.10;67.50;;;;;;4118879;28;19937;-49
2023/07/22 00:21:29;;;;;;;;;;;21.10;67.50;;;;;;4130878;28;20308;-48
2023/07/22 00:24:11;;;;;;;;;;;21.00;67.50;;;;;;4103739;28;19994;-47
2023/07/22 00:26:57;;;;;;;;;;;21.00;67.50;;;;;;4119743;28;19936;-47
2023/07/22 00:29:40;;;;;;;;;;;21.00;67.50;;;;;;4141024;28;19932;-47
2023/07/22 00:32:23;;;;;;;;;;;21.00;67.60;;;;;;4135301;28;19947;-47
2023/07/22 00:35:05;;;;;;;;;;;21.00;67.60;;;;;;4097251;28;20331;-48
2023/07/22 00:37:58;;;;;;;;;;;21.00;67.60;;;;;;4142003;28;20458;-47
2023/07/22 00:40:40;;;;;;;;;;;21.00;67.80;;;;;;4145788;28;20380;-48
2023/07/22 00:43:21;;;;;;;;;;;21.00;67.70;;;;;;4111284;28;19947;-47
2023/07/22 00:46:06;;;;;;;;;;;21.00;67.70;;;;;;4135086;28;19971;-47
2023/07/22 00:48:52;;;;;;;;;;;21.00;67.80;;;;;;4144224;28;19951;-48
2023/07/22 00:51:33;;;;;;;;;;;20.90;67.80;;;;;;4140488;28;20334;-48
2023/07/22 00:54:15;;;;;;;;;;;21.00;67.80;;;;;;4131844;28;19932;-47
2023/07/22 00:57:00;;;;;;;;;;;20.90;68.70;;;;;;4129736;28;19960;-49
2023/07/22 00:59:42;;;;;;;;;;;20.90;67.80;;;;;;4124612;28;19937;-48
2023/07/22 01:02:24;;;;;;;;;;;20.90;67.90;;;;;;4142402;28;20326;-52
2023/07/22 01:05:10;;;;;;;;;;;20.90;67.90;;;;;;4138537;28;20395;-51
2023/07/22 01:07:52;;;;;;;;;;;20.90;68.00;;;;;;4159498;28;19932;-48
2023/07/22 01:10:37;;;;;;;;;;;20.90;67.90;;;;;;4141140;28;20023;-47
2023/07/22 01:13:20;;;;;;;;;;;20.90;68.00;;;;;;4147716;28;19948;-47
2023/07/22 01:16:05;;;;;;;;;;;20.90;68.00;;;;;;4132159;28;19932;-50
2023/07/22 01:18:47;;;;;;;;;;;20.90;68.90;;;;;;4135320;28;20022;-51
2023/07/22 01:21:30;;;;;;;;;;;20.90;68.10;;;;;;4178526;28;19936;-50
2023/07/22 01:24:12;;;;;;;;;;;20.90;68.10;;;;;;4153778;28;19932;-52
2023/07/22 01:26:53;;;;;;;;;;;20.90;68.10;;;;;;4152861;28;20399;-50
2023/07/22 01:29:34;;;;;;;;;;;20.90;68.20;;;;;;4156647;28;19932;-51
2023/07/22 01:32:15;;;;;;;;;;;20.90;68.10;;;;;;4154875;28;19936;-50
2023/07/22 01:34:56;;;;;;;;;;;20.80;68.10;;;;;;4154671;28;20308;-50
2023/07/22 01:37:38;;;;;;;;;;;20.90;68.20;;;;;;4154640;28;19936;-53
2023/07/22 01:40:20;;;;;;;;;;;20.80;68.10;;;;;;4159145;28;20478;-52
2023/07/22 01:43:01;;;;;;;;;;;20.80;68.20;;;;;;4166547;28;19936;-49
2023/07/22 01:45:42;;;;;;;;;;;20.80;68.20;;;;;;4150020;28;19971;-50
2023/07/22 01:48:23;;;;;;;;;;;20.80;68.20;;;;;;4154533;28;19932;-49
2023/07/22 01:51:05;;;;;;;;;;;20.80;68.20;;;;;;4156335;28;19936;-54
2023/07/22 01:53:46;;;;;;;;;;;20.80;68.20;;;;;;4142784;28;19939;-51
2023/07/22 01:56:28;;;;;;;;;;;20.80;68.20;;;;;;4156444;28;19952;-50
2023/07/22 01:59:10;;;;;;;;;;;20.80;68.30;;;;;;4156312;28;19932;-52
2023/07/22 02:01:51;;;;;;;;;;;20.80;68.30;;;;;;4165677;28;20308;-50
2023/07/22 02:04:32;;;;;;;;;;;20.80;68.40;;;;;;4154247;28;20067;-52
2023/07/22 02:07:13;;;;;;;;;;;20.80;68.30;;;;;;4132482;28;20470;-53
2023/07/22 02:09:54;;;;;;;;;;;20.80;68.40;;;;;;4154726;28;20327;-52
2023/07/22 02:12:36;;;;;;;;;;;20.70;68.40;;;;;;4153293;28;19990;-54
2023/07/22 02:15:17;;;;;;;;;;;20.70;68.30;;;;;;4166772;28;20014;-51
2023/07/22 02:17:58;;;;;;;;;;;20.70;68.30;;;;;;4166784;28;19936;-52
2023/07/22 02:20:39;;;;;;;;;;;20.70;68.30;;;;;;4155673;28;20359;-54
2023/07/22 02:23:20;;;;;;;;;;;20.70;69.30;;;;;;4150576;28;19933;-51
2023/07/22 02:26:02;;;;;;;;;;;20.70;68.30;;;;;;4154258;28;19944;-53
2023/07/22 02:28:44;;;;;;;;;;;20.70;68.30;;;;;;4155625;28;19936;-53
2023/07/22 02:31:25;;;;;;;;;;;20.70;68.30;;;;;;4166863;28;20388;-51
2023/07/22 02:34:06;;;;;;;;;;;20.70;68.40;;;;;;4144002;28;19932;-51
2023/07/22 02:36:47;;;;;;;;;;;20.70;68.30;;;;;;4129813;28;19936;-51
2023/07/22 02:39:28;;;;;;;;;;;20.70;69.20;;;;;;4154824;28;20392;-49
2023/07/22 02:42:09;;;;;;;;;;;20.60;68.20;;;;;;4156701;28;19932;-49
2023/07/22 02:44:51;;;;;;;;;;;20.60;68.20;;;;;;4172048;28;19936;-49
2023/07/22 02:47:34;;;;;;;;;;;20.60;68.20;;;;;;4159913;28;19979;-54
2023/07/22 02:50:15;;;;;;;;;;;20.60;68.30;;;;;;4155136;28;19936;-54
2023/07/22 02:52:56;;;;;;;;;;;20.60;68.30;;;;;;4176974;28;19977;-52
2023/07/22 02:55:36;;;;;;;;;;;20.60;68.30;;;;;;4188659;28;20457;-54
2023/07/22 02:58:18;;;;;;;;;;;20.60;68.40;;;;;;4175779;28;19935;-52
2023/07/22 03:01:00;;;;;;;;;;;20.60;68.30;;;;;;4143074;28;20011;-50
2023/07/22 03:03:41;;;;;;;;;;;20.60;68.40;;;;;;4155973;28;19982;-49
2023/07/22 03:06:22;;;;;;;;;;;20.50;68.30;;;;;;4155256;28;19932;-51
2023/07/22 03:09:04;;;;;;;;;;;20.60;68.40;;;;;;4154957;28;19937;-51
2023/07/22 03:11:45;;;;;;;;;;;20.50;68.30;;;;;;4155459;28;19978;-52
2023/07/22 03:14:26;;;;;;;;;;;20.50;68.30;;;;;;4168167;28;20311;-53
2023/07/22 03:17:08;;;;;;;;;;;20.50;68.30;;;;;;4156005;28;19978;-51
2023/07/22 03:19:49;;;;;;;;;;;20.50;68.30;;;;;;4168072;28;19932;-54
2023/07/22 03:22:31;;;;;;;;;;;20.50;68.30;;;;;;4188488;28;19931;-50
2023/07/22 03:25:12;;;;;;;;;;;20.50;68.30;;;;;;4187982;28;19939;-52
2023/07/22 03:27:52;;;;;;;;;;;20.50;68.30;;;;;;4169585;28;19936;-49
2023/07/22 03:30:33;;;;;;;;;;;20.50;68.30;;;;;;4156839;28;19940;-49
2023/07/22 03:33:15;;;;;;;;;;;20.50;68.30;;;;;;4155788;28;19954;-52
2023/07/22 03:35:56;;;;;;;;;;;20.50;68.30;;;;;;4180879;28;19978;-48
2023/07/22 03:38:37;;;;;;;;;;;20.50;68.30;;;;;;4154986;28;19998;-49
2023/07/22 03:41:18;;;;;;;;;;;20.50;68.30;;;;;;4154321;28;19932;-48
2023/07/22 03:43:58;;;;;;;;;;;20.50;68.30;;;;;;4163440;28;20298;-50
2023/07/22 03:46:39;;;;;;;;;;;20.50;68.40;;;;;;4175329;28;19978;-49
2023/07/22 03:49:21;;;;;;;;;;;20.50;68.30;;;;;;4170720;28;19935;-48
2023/07/22 03:52:02;;;;;;;;;;;20.40;68.20;;;;;;4170441;28;19952;-50
2023/07/22 03:54:43;;;;;;;;;;;20.50;68.30;;;;;;4170432;28;19978;-52
2023/07/22 03:57:26;;;;;;;;;;;20.40;68.20;;;;;;4164913;28;19931;-49
2023/07/22 04:00:09;;;;;;;;;;;20.40;68.20;;;;;;4176010;28;19936;-51
2023/07/22 04:02:53;;;;;;;;;;;20.40;68.20;;;;;;4154099;28;20524;-50
2023/07/22 04:05:35;;;;;;;;;;;20.40;68.30;;;;;;4152649;28;20395;-51
2023/07/22 04:08:16;;;;;;;;;;;20.40;68.30;;;;;;4166447;28;20026;-51
2023/07/22 04:10:58;;;;;;;;;;;20.40;68.30;;;;;;4169836;28;20067;-55
2023/07/22 04:13:39;;;;;;;;;;;20.40;68.30;;;;;;4158317;28;19981;-53
2023/07/22 04:16:20;;;;;;;;;;;20.40;68.30;;;;;;4169654;28;20474;-55
2023/07/22 04:19:01;;;;;;;;;;;20.40;68.30;;;;;;4170727;28;20134;-53
2023/07/22 04:21:43;;;;;;;;;;;20.40;68.30;;;;;;4170665;28;19935;-52
2023/07/22 04:24:24;;;;;;;;;;;20.40;68.30;;;;;;4170311;28;20283;-54
2023/07/22 04:27:06;;;;;;;;;;;20.30;68.20;;;;;;4170636;28;20394;-51
2023/07/22 04:29:47;;;;;;;;;;;20.30;68.20;;;;;;4171088;28;19939;-52
2023/07/22 04:32:28;;;;;;;;;;;20.40;68.30;;;;;;4169249;28;20406;-54
2023/07/22 04:35:10;;;;;;;;;;;20.30;68.30;;;;;;4159125;28;19935;-49
2023/07/22 04:37:52;;;;;;;;;;;20.40;68.30;;;;;;4169581;28;19936;-49
2023/07/22 04:40:33;;;;;;;;;;;20.30;68.20;;;;;;4169495;28;19947;-48
2023/07/22 04:43:14;;;;;;;;;;;20.30;68.20;;;;;;4168484;28;19935;-48
2023/07/22 04:45:55;;;;;;;;;;;20.30;68.20;;;;;;4146523;28;20396;-48
2023/07/22 04:48:36;;;;;;;;;;;20.40;68.30;;;;;;4152049;28;20055;-48
2023/07/22 04:51:17;;;;;;;;;;;20.40;68.30;;;;;;4160896;28;19931;-47
2023/07/22 04:54:00;;;;;;;;;;;20.40;68.30;;;;;;4154390;28;19936;-52
2023/07/22 04:56:41;;;;;;;;;;;20.30;68.30;;;;;;4170149;28;19955;-49
2023/07/22 04:59:22;;;;;;;;;;;20.30;68.30;;;;;;4170433;28;20077;-55
2023/07/22 05:02:03;;;;;;;;;;;20.30;68.40;;;;;;4155867;28;19932;-52
2023/07/22 05:04:44;;;;;;;;;;;20.30;68.80;;;;;;4174239;28;19978;-53
2023/07/22 05:07:25;;;;;;;;;;;20.40;69.20;;;;;;4174205;28;19932;-54
2023/07/22 05:10:11;;;;;;;;;;;20.40;69.20;;;;;;4172944;28;19935;-50
2023/07/22 05:12:52;;;;;;;;;;;20.40;69.00;;;;;;4171501;28;19931;-52
2023/07/22 05:15:33;;;;;;;;;;;20.30;68.90;;;;;;4164306;28;20276;-50
2023/07/22 05:18:13;;;;;;;;;;;20.30;69.00;;;;;;4158695;28;19932;-49
2023/07/22 05:20:54;;;;;;;;;;;20.30;69.00;;;;;;4156630;28;19979;-49
2023/07/22 05:23:35;;;;;;;;;;;20.30;69.00;;;;;;4171287;28;20026;-49
2023/07/22 05:26:17;;;;;;;;;;;20.30;69.00;;;;;;4169957;28;20010;-55
2023/07/22 05:28:58;;;;;;;;;;;20.30;69.00;;;;;;4154884;28;19962;-55
2023/07/22 05:31:39;;;;;;;;;;;20.30;70.00;;;;;;4145313;28;20307;-52
2023/07/22 05:34:20;;;;;;;;;;;20.30;69.20;;;;;;4173429;28;19932;-53
2023/07/22 05:37:00;;;;;;;;;;;20.30;69.20;;;;;;4173333;28;19935;-63
2023/07/22 05:39:41;;;;;;;;;;;20.30;70.20;;;;;;4161268;28;20734;-61
2023/07/22 05:42:24;;;;;;;;;;;20.30;69.40;;;;;;4173178;28;19947;-61
2023/07/22 05:45:05;;;;;;;;;;;20.30;69.30;;;;;;4173228;28;20040;-60
2023/07/22 05:47:45;;;;;;;;;;;20.30;69.30;;;;;;4189849;28;19932;-61
2023/07/22 05:50:26;;;;;;;;;;;20.40;69.20;;;;;;4167522;28;20013;-60
2023/07/22 05:53:07;;;;;;;;;;;20.40;69.10;;;;;;4164844;28;19948;-61
2023/07/22 05:55:48;;;;;;;;;;;20.40;69.10;;;;;;4173071;28;20397;-61
2023/07/22 05:58:31;;;;;;;;;;;20.40;69.00;;;;;;4171204;28;19954;-61
2023/07/22 06:01:12;;;;;;;;;;;20.50;69.00;;;;;;4172126;28;19975;-61
2023/07/22 06:03:53;;;;;;;;;;;20.50;69.00;;;;;;4157600;28;20014;-48
2023/07/22 06:06:36;;;;;;;;;;;20.50;68.90;;;;;;4156406;28;19970;-49
2023/07/22 06:09:16;;;;;;;;;;;20.50;68.90;;;;;;4155930;28;19932;-50
2023/07/22 06:11:57;;;;;;;;;;;20.50;68.90;;;;;;4153383;28;20303;-52
2023/07/22 06:14:39;;;;;;;;;;;20.50;68.80;;;;;;4144982;28;19951;-48
2023/07/22 06:17:20;;;;;;;;;;;20.60;68.70;;;;;;4155488;28;19955;-49
2023/07/22 06:20:01;;;;;;;;;;;20.60;68.50;;;;;;4144498;28;20087;-49
2023/07/22 06:22:42;;;;;;;;;;;20.60;68.40;;;;;;4172567;28;19936;-49
2023/07/22 06:25:23;;;;;;;;;;;20.60;68.20;;;;;;4171506;28;19936;-52
2023/07/22 06:28:03;;;;;;;;;;;20.60;68.10;;;;;;4155704;28;19975;-55
2023/07/22 06:30:46;;;;;;;;;;;20.70;68.00;;;;;;4167569;28;20059;-53
2023/07/22 06:33:27;;;;;;;;;;;20.70;67.90;;;;;;4171893;28;20000;-54
2023/07/22 06:36:07;;;;;;;;;;;20.70;67.70;;;;;;4158687;28;20437;-56
2023/07/22 06:38:48;;;;;;;;;;;20.70;68.60;;;;;;4143908;28;20014;-52
2023/07/22 06:41:29;;;;;;;;;;;20.80;67.90;;;;;;4160146;28;19932;-62
2023/07/22 06:44:09;;;;;;;;;;;20.80;67.90;;;;;;4170895;28;19947;-62
2023/07/22 06:46:51;;;;;;;;;;;20.80;67.90;;;;;;4156093;28;19932;-62
2023/07/22 06:49:32;;;;;;;;;;;20.80;67.80;;;;;;4172171;28;20473;-62
2023/07/22 06:52:12;;;;;;;;;;;20.80;67.80;;;;;;4171473;28;20280;-62
2023/07/22 06:54:53;;;;;;;;;;;20.90;67.90;;;;;;4171222;28;19932;-62
2023/07/22 06:57:34;;;;;;;;;;;20.90;68.70;;;;;;4187430;28;20009;-61
2023/07/22 07:00:15;;;;;;;;;;;20.90;67.70;;;;;;4139309;28;19975;-62
2023/07/22 07:02:59;;;;;;;;;;;21.00;67.60;;;;;;4138902;28;20388;-62
2023/07/22 07:05:41;;;;;;;;;;;21.00;67.50;;;;;;4154959;28;19932;-62
2023/07/22 07:08:22;;;;;;;;;;;21.00;67.20;;;;;;4161730;28;20390;-62
2023/07/22 07:11:02;;;;;;;;;;;21.10;67.30;;;;;;4157049;28;19948;-53
2023/07/22 07:13:43;;;;;;;;;;;21.10;67.20;;;;;;4188250;28;19935;-61
2023/07/22 07:16:25;;;;;;;;;;;21.10;67.10;;;;;;4182788;28;19932;-61
2023/07/22 07:19:07;;;;;;;;;;;21.10;67.10;;;;;;4170165;28;20003;-62
2023/07/22 07:21:50;;;;;;;;;;;21.10;68.00;;;;;;4151812;28;19932;-61
2023/07/22 07:24:30;;;;;;;;;;;21.10;67.20;;;;;;4155961;28;19932;-62
2023/07/22 07:27:11;;;;;;;;;;;21.10;67.20;;;;;;4152525;28;19936;-61
2023/07/22 07:29:52;;;;;;;;;;;21.10;67.10;;;;;;4166385;28;19995;-61
2023/07/22 07:32:34;;;;;;;;;;;21.10;67.10;;;;;;4169388;28;19936;-62
2023/07/22 07:35:16;;;;;;;;;;;21.20;67.20;;;;;;4156141;28;20390;-62
2023/07/22 07:37:57;;;;;;;;;;;21.10;67.20;;;;;;4171418;28;19986;-61
2023/07/22 07:40:37;;;;;;;;;;;21.20;67.30;;;;;;4156669;28;19936;-61
2023/07/22 07:43:18;;;;;;;;;;;21.10;67.20;;;;;;4158390;28;19931;-61
2023/07/22 07:46:20;;;;;;;;;;;21.10;68.20;;;;;;4167810;28;19932;-62
2023/07/22 07:49:01;;;;;;;;;;;21.10;67.30;;;;;;4167171;28;19935;-61
2023/07/22 07:51:44;;;;;;;;;;;21.10;67.50;;;;;;4169647;28;19978;-61
2023/07/22 07:54:24;;;;;;;;;;;21.00;67.50;;;;;;4159917;28;19932;-61
2023/07/22 07:57:05;;;;;;;;;;;21.00;67.70;;;;;;4169447;28;19934;-62
2023/07/22 07:59:46;;;;;;;;;;;21.00;67.70;;;;;;4162115;28;19954;-61
2023/07/22 08:02:26;;;;;;;;;;;21.00;67.80;;;;;;4157312;28;19936;-61
2023/07/22 08:05:07;;;;;;;;;;;21.00;68.00;;;;;;4165485;28;19947;-48
2023/07/22 08:07:49;;;;;;;;;;;21.00;68.10;;;;;;4168690;28;19973;-48
2023/07/22 08:10:30;;;;;;;;;;;21.00;68.20;;;;;;4153478;28;19932;-49
2023/07/22 08:13:11;;;;;;;;;;;21.00;68.30;;;;;;4170638;28;19932;-61
2023/07/22 08:15:54;;;;;;;;;;;21.00;68.30;;;;;;4170941;28;19935;-61
2023/07/22 08:18:36;;;;;;;;;;;21.00;68.30;;;;;;4155404;28;19936;-62
2023/07/22 08:21:16;;;;;;;;;;;21.10;68.30;;;;;;4187404;28;20009;-62
2023/07/22 08:23:59;;;;;;;;;;;21.10;68.20;;;;;;4186232;28;19939;-62
2023/07/22 08:26:39;;;;;;;;;;;21.10;68.20;;;;;;4160776;28;20027;-61
2023/07/22 08:29:20;;;;;;;;;;;21.20;68.20;;;;;;4170522;28;20019;-61
2023/07/22 08:32:00;;;;;;;;;;;21.20;68.10;;;;;;4170865;28;19935;-61
2023/07/22 08:34:41;;;;;;;;;;;21.20;68.10;;;;;;4163600;28;19932;-61
2023/07/22 08:37:22;;;;;;;;;;;21.20;68.00;;;;;;4170212;28;20000;-61
2023/07/22 08:40:05;;;;;;;;;;;21.20;67.80;;;;;;4167596;28;20009;-58
2023/07/22 08:42:46;;;;;;;;;;;21.20;67.40;;;;;;4167960;28;19971;-62
2023/07/22 08:45:30;;;;;;;;;;;21.20;67.20;;;;;;4172963;28;19932;-61
2023/07/22 08:48:12;;;;;;;;;;;21.30;67.10;;;;;;4153775;28;20291;-61
2023/07/22 08:50:54;;;;;;;;;;;21.30;66.90;;;;;;4166764;28;20315;-62
2023/07/22 08:53:35;;;;;;;;;;;21.20;66.80;;;;;;4167655;28;19936;-61
2023/07/22 08:56:17;;;;;;;;;;;21.30;66.80;;;;;;4167798;28;19948;-61
2023/07/22 08:58:58;;;;;;;;;;;21.20;66.80;;;;;;4170852;28;19935;-61
2023/07/22 09:01:40;;;;;;;;;;;21.20;66.80;;;;;;4137978;28;20011;-62
2023/07/22 09:04:21;;;;;;;;;;;21.20;66.80;;;;;;4145155;28;19953;-62
2023/07/22 09:07:03;;;;;;;;;;;21.30;66.90;;;;;;4186254;28;19932;-60
2023/07/22 09:09:45;;;;;;;;;;;21.30;67.00;;;;;;4187317;28;20287;-60
2023/07/22 09:12:27;;;;;;;;;;;21.30;67.00;;;;;;4155500;28;19971;-60
2023/07/22 09:15:10;;;;;;;;;;;21.30;66.80;;;;;;4168093;28;20066;-60
2023/07/22 09:17:51;;;;;;;;;;;21.30;66.80;;;;;;4167173;28;20066;-60
2023/07/22 09:20:32;;;;;;;;;;;21.30;66.80;;;;;;4147943;28;19936;-60
2023/07/22 09:23:14;;;;;;;;;;;21.30;66.90;;;;;;4137213;28;20064;-60
2023/07/22 09:26:08;;;;;;;;;;;21.30;67.00;;;;;;4153052;28;20386;-60
2023/07/22 09:28:51;;;;;;;;;;;21.30;67.80;;;;;;4151723;28;20314;-60
2023/07/22 09:31:33;;;;;;;;;;;21.30;66.60;;;;;;4153553;28;19971;-60
2023/07/22 09:34:13;;;;;;;;;;;21.30;66.40;;;;;;4136837;28;19936;-59
2023/07/22 09:36:55;;;;;;;;;;;21.30;66.50;;;;;;4153711;28;20291;-59
2023/07/22 09:39:36;;;;;;;;;;;21.30;66.70;;;;;;4153565;28;20703;-59
2023/07/22 09:42:24;;;;;;;;;;;21.30;66.50;;;;;;4149556;28;20014;-59
2023/07/22 09:45:07;;;;;;;;;;;21.30;66.30;;;;;;4152628;28;19994;-60
2023/07/22 09:47:49;;;;;;;;;;;21.20;66.10;;;;;;4149245;28;20441;-60
2023/07/22 09:50:30;;;;;;;;;;;21.30;67.10;;;;;;4153137;28;20023;-60
2023/07/22 09:53:15;;;;;;;;;;;21.20;67.10;;;;;;4155986;28;19936;-62
2023/07/22 09:56:03;;;;;;;;;;;21.20;68.00;;;;;;4156985;28;19968;-61
2023/07/22 09:58:46;;;;;;;;;;;21.20;68.50;;;;;;4159303;28;19967;-60
2023/07/22 10:01:29;;;;;;;;;;;21.20;68.90;;;;;;4154271;28;20427;-60
2023/07/22 10:04:11;;;;;;;;;;;21.20;69.60;;;;;;4158950;28;20018;-60
2023/07/22 10:06:52;;;;;;;;;;;21.20;70.10;;;;;;4189560;28;20299;-60
2023/07/22 10:09:34;;;;;;;;;;;21.10;70.60;;;;;;4189848;28;19934;-61
2023/07/22 10:12:15;;;;;;;;;;;21.10;70.90;;;;;;4189360;28;19939;-60
2023/07/22 10:14:56;;;;;;;;;;;21.10;71.10;;;;;;4189601;28;20345;-62
2023/07/22 10:17:38;;;;;;;;;;;21.10;71.50;;;;;;4189166;28;20267;-60
2023/07/22 10:20:20;;;;;;;;;;;21.10;71.70;;;;;;4154910;28;19943;-60
2023/07/22 10:23:01;;;;;;;;;;;21.10;72.00;;;;;;4156086;28;19936;-60
2023/07/22 10:25:43;;;;;;;;;;;21.10;72.30;;;;;;4154745;28;19936;-60
2023/07/22 10:28:23;;;;;;;;;;;21.10;72.20;;;;;;4153922;28;19932;-60
2023/07/22 10:31:04;;;;;;;;;;;21.10;73.20;;;;;;4156423;28;19932;-60
2023/07/22 10:33:47;;;;;;;;;;;21.10;72.40;;;;;;4155805;28;19936;-60
2023/07/22 10:36:30;;;;;;;;;;;21.00;72.40;;;;;;4156471;28;20293;-60
2023/07/22 10:39:24;;;;;;;;;;;21.00;72.70;;;;;;4155208;28;20018;-61
2023/07/22 10:42:09;;;;;;;;;;;21.00;72.70;;;;;;4154665;28;19935;-60
2023/07/22 10:44:49;;;;;;;;;;;21.00;72.70;;;;;;4163918;28;21366;-61
2023/07/22 10:47:33;;;;;;;;;;;21.00;73.00;;;;;;4170501;28;20037;-60
2023/07/22 10:50:15;;;;;;;;;;;21.00;73.00;;;;;;4168284;28;20070;-60
2023/07/22 10:53:01;;;;;;;;;;;21.00;72.90;;;;;;4171070;28;20280;-60
2023/07/22 10:56:00;;;;;;;;;;;21.00;73.00;;;;;;4163755;28;19932;-60
2023/07/22 10:58:57;;;;;;;;;;;21.00;73.10;;;;;;4188126;28;19932;-60
2023/07/22 11:01:39;;;;;;;;;;;21.00;73.10;;;;;;4187739;28;19935;-60
2023/07/22 11:04:30;;;;;;;;;;;21.00;73.20;;;;;;4189516;28;19935;-60
2023/07/22 11:07:30;;;;;;;;;;;21.00;73.20;;;;;;4175045;28;20025;-60
2023/07/22 11:10:12;;;;;;;;;;;21.00;73.10;;;;;;4153162;28;19936;-60
2023/07/22 11:12:52;;;;;;;;;;;21.00;73.10;;;;;;4152623;28;19936;-60
2023/07/22 11:15:33;;;;;;;;;;;21.00;73.00;;;;;;4169490;28;19936;-60
2023/07/22 11:18:14;;;;;;;;;;;21.00;73.10;;;;;;4172456;28;19936;-60
2023/07/22 11:20:55;;;;;;;;;;;21.00;73.10;;;;;;4188565;28;19932;-60
2023/07/22 11:23:37;;;;;;;;;;;21.00;73.20;;;;;;4188751;28;19935;-60
2023/07/22 11:26:18;;;;;;;;;;;20.90;74.10;;;;;;4142966;28;20063;-60
2023/07/22 11:28:59;;;;;;;;;;;21.00;73.30;;;;;;4155203;28;19936;-60
2023/07/22 11:31:42;;;;;;;;;;;20.90;73.30;;;;;;4155733;28;19932;-61
2023/07/22 11:34:24;;;;;;;;;;;20.90;74.30;;;;;;4154128;28;20343;-60
2023/07/22 11:37:05;;;;;;;;;;;20.90;73.60;;;;;;4142556;28;19932;-51
2023/07/22 11:39:48;;;;;;;;;;;20.90;73.70;;;;;;4153972;28;20010;-52
2023/07/22 11:42:29;;;;;;;;;;;20.90;73.80;;;;;;4150659;28;20407;-53
2023/07/22 11:45:11;;;;;;;;;;;20.90;73.90;;;;;;4154833;28;19936;-51
2023/07/22 11:47:51;;;;;;;;;;;20.90;74.00;;;;;;4155019;28;20304;-53
2023/07/22 11:50:33;;;;;;;;;;;20.90;74.10;;;;;;4161494;28;19932;-54
2023/07/22 11:53:14;;;;;;;;;;;20.90;74.10;;;;;;4169951;28;20299;-51
2023/07/22 11:55:57;;;;;;;;;;;20.90;74.10;;;;;;4166806;28;20033;-53
2023/07/22 11:58:38;;;;;;;;;;;20.90;74.20;;;;;;4167748;28;19931;-54
2023/07/22 12:01:19;;;;;;;;;;;20.90;74.30;;;;;;4170980;28;19931;-52
2023/07/22 12:04:00;;;;;;;;;;;20.90;74.20;;;;;;4168926;28;19932;-51
2023/07/22 12:06:42;;;;;;;;;;;20.90;74.10;;;;;;4155870;28;19933;-48
2023/07/22 12:09:26;;;;;;;;;;;20.90;74.20;;;;;;4179028;28;19978;-53
2023/07/22 12:12:09;;;;;;;;;;;20.90;74.30;;;;;;4172589;28;20391;-54
2023/07/22 12:14:50;;;;;;;;;;;20.90;74.40;;;;;;4167664;28;19978;-52
2023/07/22 12:17:31;;;;;;;;;;;20.90;74.40;;;;;;4153159;28;19955;-54
2023/07/22 12:20:13;;;;;;;;;;;20.90;75.40;;;;;;4155676;28;19947;-60
2023/07/22 12:22:54;;;;;;;;;;;20.90;74.60;;;;;;4172720;28;19932;-60
2023/07/22 12:25:34;;;;;;;;;;;20.90;74.80;;;;;;4170855;28;20387;-60
2023/07/22 12:28:16;;;;;;;;;;;20.90;75.80;;;;;;4154692;28;19998;-61
2023/07/22 12:30:57;;;;;;;;;;;20.90;74.90;;;;;;4164617;28;20307;-61
2023/07/22 12:33:38;;;;;;;;;;;20.90;75.10;;;;;;4170251;28;19963;-54
2023/07/22 12:36:19;;;;;;;;;;;20.90;76.10;;;;;;4170110;28;19931;-50
2023/07/22 12:39:00;;;;;;;;;;;20.90;75.30;;;;;;4168705;28;19936;-49
2023/07/22 12:41:41;;;;;;;;;;;20.90;74.90;;;;;;4168054;28;19932;-53
2023/07/22 12:44:23;;;;;;;;;;;20.90;74.80;;;;;;4161930;28;20411;-53
2023/07/22 12:47:04;;;;;;;;;;;21.00;75.80;;;;;;4157680;28;19931;-52
2023/07/22 12:49:44;;;;;;;;;;;20.90;74.90;;;;;;4170392;28;19936;-52
2023/07/22 12:52:25;;;;;;;;;;;20.90;75.50;;;;;;4169780;28;20259;-49
2023/07/22 12:55:06;;;;;;;;;;;20.90;76.70;;;;;;4170895;28;19936;-50
2023/07/22 12:57:47;;;;;;;;;;;20.90;75.90;;;;;;4154317;28;19932;-52
2023/07/22 13:00:29;;;;;;;;;;;20.90;76.10;;;;;;4162990;28;20299;-51
2023/07/22 13:03:09;;;;;;;;;;;20.90;76.30;;;;;;4145940;28;20379;-51
2023/07/22 13:05:50;;;;;;;;;;;20.90;76.80;;;;;;4154255;28;19935;-50
2023/07/22 13:08:31;;;;;;;;;;;20.90;76.50;;;;;;4167316;28;20060;-49
2023/07/22 13:11:11;;;;;;;;;;;21.00;76.90;;;;;;4156231;28;20018;-58
2023/07/22 13:13:52;;;;;;;;;;;20.90;77.10;;;;;;4167037;28;20296;-52
2023/07/22 13:16:34;;;;;;;;;;;20.90;77.50;;;;;;4170228;28;19936;-51
2023/07/22 13:19:15;;;;;;;;;;;20.90;77.50;;;;;;4156708;28;19974;-50
2023/07/22 13:21:56;;;;;;;;;;;21.00;77.50;;;;;;4153945;28;20304;-50
2023/07/22 13:24:37;;;;;;;;;;;20.90;77.80;;;;;;4169516;28;20067;-48
2023/07/22 13:27:18;;;;;;;;;;;20.90;77.90;;;;;;4143260;28;19991;-45
2023/07/22 13:29:58;;;;;;;;;;;21.00;78.00;;;;;;4156272;28;19932;-53
2023/07/22 13:32:41;;;;;;;;;;;21.00;78.20;;;;;;4157127;28;19932;-50
2023/07/22 13:35:22;;;;;;;;;;;20.90;78.10;;;;;;4155340;28;19947;-52
2023/07/22 13:38:03;;;;;;;;;;;20.90;78.20;;;;;;4156478;28;19975;-50
2023/07/22 13:40:44;;;;;;;;;;;20.90;78.20;;;;;;4156460;28;19940;-48
2023/07/22 13:43:25;;;;;;;;;;;21.00;78.10;;;;;;4172884;28;19932;-50
2023/07/22 13:46:05;;;;;;;;;;;20.90;78.00;;;;;;4177026;28;19984;-49
2023/07/22 13:48:48;;;;;;;;;;;20.90;77.90;;;;;;4183632;28;19946;-50
2023/07/22 13:51:28;;;;;;;;;;;20.90;77.90;;;;;;4173111;28;20405;-50
2023/07/22 13:54:09;;;;;;;;;;;20.90;78.00;;;;;;4156233;28;19932;-50
2023/07/22 13:56:51;;;;;;;;;;;20.90;78.00;;;;;;4173034;28;19932;-59
2023/07/22 13:59:32;;;;;;;;;;;20.90;78.20;;;;;;4168774;28;20002;-59
2023/07/22 14:02:12;;;;;;;;;;;20.90;78.10;;;;;;4170095;28;19971;-59
2023/07/22 14:04:55;;;;;;;;;;;20.90;78.20;;;;;;4173432;28;19936;-59
2023/07/22 14:07:36;;;;;;;;;;;20.90;78.20;;;;;;4177103;28;20018;-58
2023/07/22 14:10:17;;;;;;;;;;;20.90;78.50;;;;;;4189253;28;19936;-59
2023/07/22 14:12:58;;;;;;;;;;;20.90;78.30;;;;;;4174591;28;19932;-58
2023/07/22 14:15:39;;;;;;;;;;;20.90;78.40;;;;;;4172169;28;19951;-59
2023/07/22 14:18:20;;;;;;;;;;;20.90;78.40;;;;;;4144816;28;20103;-58
2023/07/22 14:21:02;;;;;;;;;;;20.90;78.40;;;;;;4155827;28;20079;-59
2023/07/22 14:23:43;;;;;;;;;;;20.90;78.40;;;;;;4172243;28;20299;-59
2023/07/22 14:26:24;;;;;;;;;;;20.90;78.40;;;;;;4169172;28;19936;-59
2023/07/22 14:29:05;;;;;;;;;;;20.90;78.40;;;;;;4166200;28;19931;-59
2023/07/22 14:31:46;;;;;;;;;;;20.90;78.50;;;;;;4170927;28;19935;-59
2023/07/22 14:34:26;;;;;;;;;;;20.90;78.50;;;;;;4161578;28;19931;-59
2023/07/22 14:37:08;;;;;;;;;;;20.90;78.50;;;;;;4170899;28;20042;-58
2023/07/22 14:39:50;;;;;;;;;;;20.90;78.70;;;;;;4171065;28;19962;-58
2023/07/22 14:42:30;;;;;;;;;;;20.90;78.70;;;;;;4162180;28;20386;-59
2023/07/22 14:45:11;;;;;;;;;;;20.90;78.70;;;;;;4156097;28;20004;-58
2023/07/22 14:47:52;;;;;;;;;;;20.90;78.80;;;;;;4163147;28;20062;-58
2023/07/22 14:50:33;;;;;;;;;;;20.90;78.80;;;;;;4188787;28;19936;-58
2023/07/22 14:53:15;;;;;;;;;;;20.90;79.00;;;;;;4156226;28;20577;-59
2023/07/22 14:55:56;;;;;;;;;;;20.90;79.80;;;;;;4155422;28;19939;-59
2023/07/22 14:58:37;;;;;;;;;;;20.90;79.00;;;;;;4171122;28;20299;-62
2023/07/22 15:01:17;;;;;;;;;;;20.80;79.00;;;;;;4188353;28;20138;-60
2023/07/22 15:03:58;;;;;;;;;;;20.80;79.00;;;;;;4188509;28;19931;-60
2023/07/22 15:06:38;;;;;;;;;;;20.80;79.00;;;;;;4152436;28;19931;-60
2023/07/22 15:09:20;;;;;;;;;;;20.80;79.00;;;;;;4171889;28;20284;-58
2023/07/22 15:12:02;;;;;;;;;;;20.80;79.00;;;;;;4171771;28;19932;-59
2023/07/22 15:14:42;;;;;;;;;;;20.80;78.80;;;;;;4155292;28;19936;-58
2023/07/22 15:17:23;;;;;;;;;;;20.80;78.80;;;;;;4160939;28;20295;-58
2023/07/22 15:20:04;;;;;;;;;;;20.90;79.10;;;;;;4171704;28;20017;-54
2023/07/22 15:22:45;;;;;;;;;;;20.80;79.00;;;;;;4169994;28;19974;-51
2023/07/22 15:25:27;;;;;;;;;;;20.80;79.10;;;;;;4171030;28;20400;-53
2023/07/22 15:28:08;;;;;;;;;;;20.90;79.20;;;;;;4152970;28;19935;-54
2023/07/22 15:30:49;;;;;;;;;;;20.80;79.10;;;;;;4155668;28;19959;-54
2023/07/22 15:33:30;;;;;;;;;;;20.90;79.60;;;;;;4154642;28;20299;-53
2023/07/22 15:36:11;;;;;;;;;;;20.80;79.50;;;;;;4171089;28;20021;-48
2023/07/22 15:38:52;;;;;;;;;;;20.80;79.50;;;;;;4170947;28;19977;-50
2023/07/22 15:41:34;;;;;;;;;;;20.80;79.30;;;;;;4159953;28;20059;-52